createdAt,value
2022-08-09T00:00:44.436Z,66.72
2022-08-09T00:01:43.189Z,67.94
2022-08-09T00:02:42.959Z,67.90
2022-08-09T00:04:05.476Z,67.49
2022-08-09T00:04:40.917Z,68.04
2022-08-09T00:06:18.996Z,66.95
2022-08-09T00:06:40.905Z,67.25
2022-08-09T00:07:44.550Z,64.71
2022-08-09T00:08:39.894Z,65.25
2022-08-09T00:09:39.875Z,64.12
2022-08-09T00:10:39.865Z,65.74
2022-08-09T00:12:04.346Z,65.89
2022-08-09T00:12:40.831Z,65.56
2022-08-09T00:13:40.836Z,67.89
2022-08-09T00:14:39.828Z,65.49
2022-08-09T00:15:58.895Z,65.55
2022-08-09T00:16:40.799Z,68.35
2022-08-09T00:18:05.943Z,65.52
2022-08-09T00:18:40.808Z,68.42
2022-08-09T00:19:39.777Z,66.54
2022-08-09T00:20:42.554Z,66.30
2022-08-09T00:21:43.137Z,67.38
2022-08-09T00:22:40.745Z,67.76
2022-08-09T00:23:57.103Z,65.45
2022-08-09T00:24:40.722Z,66.46
2022-08-09T00:25:39.704Z,65.51
2022-08-09T00:26:39.704Z,64.07
2022-08-09T00:27:43.060Z,63.41
2022-08-09T00:28:39.738Z,64.35
2022-08-09T00:30:24.543Z,66.75
2022-08-09T00:30:40.662Z,66.82
2022-08-09T00:31:59.295Z,67.60
2022-08-09T00:32:41.066Z,66.11
2022-08-09T00:33:50.598Z,68.56
2022-08-09T00:34:40.619Z,65.99
2022-08-09T00:35:43.360Z,68.43
2022-08-09T00:36:40.083Z,65.27
2022-08-09T00:37:39.583Z,67.23
2022-08-09T00:38:39.597Z,65.82
2022-08-09T00:40:12.188Z,68.24
2022-08-09T00:40:40.572Z,66.23
2022-08-09T00:44:10.557Z,64.39
2022-08-09T00:44:10.787Z,67.43
2022-08-09T00:44:11.382Z,68.00
2022-08-09T00:44:40.568Z,66.08
2022-08-09T00:45:39.513Z,66.25
2022-08-09T00:46:56.476Z,65.16
2022-08-09T00:47:40.496Z,63.34
2022-08-09T00:48:39.491Z,66.01
2022-08-09T00:49:39.478Z,63.63
2022-08-09T00:50:39.466Z,65.04
2022-08-09T00:51:54.359Z,65.78
2022-08-09T00:52:40.440Z,67.05
2022-08-09T00:53:39.456Z,66.48
2022-08-09T00:54:39.420Z,66.49
2022-08-09T00:56:05.636Z,67.08
2022-08-09T00:56:40.397Z,67.06
2022-08-09T00:57:39.396Z,63.95
2022-08-09T00:58:39.401Z,67.88
2022-08-09T00:59:41.217Z,66.83
2022-08-09T01:00:39.359Z,65.40
2022-08-09T01:01:44.794Z,65.93
2022-08-09T01:02:40.347Z,68.35
2022-08-09T01:03:45.492Z,68.49
2022-08-09T01:04:39.342Z,67.27
2022-08-09T01:05:51.628Z,67.91
2022-08-09T01:06:54.334Z,65.73
2022-08-09T01:08:00.146Z,67.15
2022-08-09T01:08:40.301Z,64.98
2022-08-09T01:09:40.269Z,68.72
2022-08-09T01:10:39.262Z,67.94
2022-08-09T01:11:39.256Z,66.66
2022-08-09T01:12:39.242Z,64.02
2022-08-09T01:13:53.583Z,65.90
2022-08-09T01:14:40.250Z,65.87
2022-08-09T01:15:41.085Z,67.28
2022-08-09T01:16:40.205Z,67.21
2022-08-09T01:17:40.196Z,64.29
2022-08-09T01:18:39.185Z,65.74
2022-08-09T01:19:40.278Z,66.63
2022-08-09T01:20:39.155Z,67.65
2022-08-09T01:21:44.687Z,64.12
2022-08-09T01:22:40.144Z,65.09
2022-08-09T01:24:01.868Z,66.91
2022-08-09T01:24:40.131Z,66.89
2022-08-09T01:25:41.683Z,65.87
2022-08-09T01:26:39.109Z,68.16
2022-08-09T01:27:39.093Z,67.92
2022-08-09T01:28:39.071Z,67.64
2022-08-09T01:29:41.096Z,68.02
2022-08-09T01:30:51.922Z,66.84
2022-08-09T01:32:31.576Z,66.44
2022-08-09T01:35:37.322Z,65.93
2022-08-09T01:36:25.160Z,66.71
2022-08-09T01:37:43.188Z,66.53
2022-08-09T01:38:25.141Z,69.18
2022-08-09T01:39:25.275Z,65.51
2022-08-09T01:40:28.545Z,67.75
2022-08-09T01:41:26.089Z,68.43
2022-08-09T01:42:25.269Z,66.70
2022-08-09T01:43:25.209Z,66.16
2022-08-09T01:44:25.210Z,66.58
2022-08-09T01:45:25.192Z,67.52
2022-08-09T01:46:27.113Z,66.90
2022-08-09T01:47:25.169Z,64.72
2022-08-09T01:48:31.360Z,67.79
2022-08-09T01:49:26.168Z,68.06
2022-08-09T01:50:29.971Z,65.75
2022-08-09T01:51:26.327Z,65.04
2022-08-09T01:52:25.164Z,66.42
2022-08-09T01:53:28.905Z,68.87
2022-08-09T01:54:25.105Z,68.28
2022-08-09T01:55:25.087Z,65.95
2022-08-09T01:56:25.085Z,65.26
2022-08-09T01:57:25.062Z,67.55
2022-08-09T01:58:25.043Z,68.31
2022-08-09T01:59:25.095Z,65.12
2022-08-09T02:00:35.675Z,67.17
2022-08-09T02:01:36.178Z,67.27
2022-08-09T02:02:31.071Z,65.20
2022-08-09T02:03:26.008Z,63.12
2022-08-09T02:04:25.012Z,65.58
2022-08-09T02:05:35.582Z,65.04
2022-08-09T02:06:25.981Z,66.44
2022-08-09T02:08:40.051Z,67.65
2022-08-09T02:08:40.512Z,68.13
2022-08-09T02:09:25.955Z,67.02
2022-08-09T02:10:30.294Z,66.17
2022-08-09T02:11:24.930Z,66.74
2022-08-09T02:12:25.923Z,67.04
2022-08-09T02:13:25.918Z,66.58
2022-08-09T02:14:26.672Z,66.40
2022-08-09T02:15:24.882Z,65.22
2022-08-09T02:16:33.747Z,67.46
2022-08-09T02:18:09.425Z,67.83
2022-08-09T02:18:25.851Z,69.22
2022-08-09T02:19:24.861Z,68.01
2022-08-09T02:20:32.569Z,68.62
2022-08-09T02:21:25.830Z,67.71
2022-08-09T02:22:27.223Z,69.40
2022-08-09T02:23:25.805Z,67.23
2022-08-09T02:24:26.755Z,68.88
2022-08-09T02:25:24.782Z,68.95
2022-08-09T02:26:27.097Z,65.25
2022-08-09T02:27:43.156Z,65.20
2022-08-09T02:28:25.777Z,67.80
2022-08-09T02:29:24.762Z,65.44
2022-08-09T02:30:26.472Z,65.27
2022-08-09T02:31:24.728Z,68.10
2022-08-09T02:32:24.766Z,69.10
2022-08-09T02:33:38.107Z,70.06
2022-08-09T02:34:40.922Z,68.21
2022-08-09T02:36:01.885Z,68.66
2022-08-09T02:36:56.582Z,70.02
2022-08-09T02:37:24.657Z,69.36
2022-08-09T02:38:28.799Z,67.82
2022-08-09T02:39:39.711Z,68.56
2022-08-09T02:40:27.000Z,67.72
2022-08-09T02:41:24.617Z,69.32
2022-08-09T02:42:24.970Z,69.44
2022-08-09T02:43:24.610Z,68.02
2022-08-09T02:44:29.390Z,68.03
2022-08-09T02:45:26.646Z,66.77
2022-08-09T02:46:24.568Z,68.02
2022-08-09T02:47:24.587Z,68.57
2022-08-09T02:48:30.715Z,68.38
2022-08-09T02:49:27.226Z,69.46
2022-08-09T02:50:25.544Z,68.62
2022-08-09T02:51:26.558Z,68.07
2022-08-09T02:52:24.579Z,68.30
2022-08-09T02:53:26.185Z,69.13
2022-08-09T02:54:24.511Z,69.23
2022-08-09T02:55:24.490Z,69.94
2022-08-09T02:56:25.484Z,69.25
2022-08-09T02:57:25.192Z,70.10
2022-08-09T02:58:37.173Z,69.39
2022-08-09T02:59:26.303Z,69.16
2022-08-09T03:00:26.366Z,71.16
2022-08-09T03:01:29.398Z,69.69
2022-08-09T03:02:25.506Z,69.64
2022-08-09T03:04:05.812Z,68.87
2022-08-09T03:04:28.766Z,69.46
2022-08-09T03:05:24.392Z,70.08
2022-08-09T03:06:25.055Z,70.24
2022-08-09T03:07:24.374Z,69.02
2022-08-09T03:08:24.371Z,69.71
2022-08-09T03:09:24.381Z,70.76
2022-08-09T03:10:24.335Z,68.35
2022-08-09T03:11:30.194Z,68.93
2022-08-09T03:12:25.450Z,70.32
2022-08-09T03:13:24.305Z,69.29
2022-08-09T03:14:28.275Z,69.48
2022-08-09T03:15:24.297Z,70.51
2022-08-09T03:16:25.289Z,69.44
2022-08-09T03:17:27.103Z,70.06
2022-08-09T03:18:31.115Z,69.70
2022-08-09T03:19:59.519Z,69.85
2022-08-09T03:20:25.249Z,69.35
2022-08-09T03:21:25.861Z,70.27
2022-08-09T03:22:42.216Z,71.01
2022-08-09T03:23:25.213Z,70.32
2022-08-09T03:24:31.431Z,70.97
2022-08-09T03:25:56.862Z,72.52
2022-08-09T03:26:30.871Z,71.07
2022-08-09T03:27:25.182Z,71.58
2022-08-09T03:28:24.167Z,71.47
2022-08-09T03:29:24.159Z,69.11
2022-08-09T03:30:33.975Z,71.04
2022-08-09T03:31:25.134Z,70.30
2022-08-09T03:32:24.126Z,71.15
2022-08-09T03:33:24.103Z,72.11
2022-08-09T03:34:24.107Z,71.49
2022-08-09T03:35:24.310Z,70.86
2022-08-09T03:36:27.352Z,70.64
2022-08-09T03:37:56.619Z,71.48
2022-08-09T03:38:28.717Z,72.21
2022-08-09T03:39:28.692Z,72.63
2022-08-09T03:40:31.100Z,71.95
2022-08-09T03:41:30.130Z,71.92
2022-08-09T03:42:30.896Z,71.92
2022-08-09T03:43:25.015Z,72.40
2022-08-09T03:44:31.935Z,71.78
2022-08-09T03:46:03.103Z,72.14
2022-08-09T03:46:29.178Z,71.95
2022-08-09T03:47:24.978Z,71.69
2022-08-09T03:48:30.740Z,72.97
2022-08-09T03:49:24.947Z,72.49
2022-08-09T03:50:27.931Z,72.74
2022-08-09T03:51:55.737Z,73.58
2022-08-09T03:52:24.939Z,71.67
2022-08-09T03:53:23.907Z,72.18
2022-08-09T03:54:29.230Z,72.82
2022-08-09T03:55:24.921Z,72.52
2022-08-09T03:56:23.882Z,71.86
2022-08-09T03:57:23.875Z,72.46
2022-08-09T03:58:23.858Z,72.15
2022-08-09T03:59:33.006Z,72.02
2022-08-09T04:00:24.931Z,72.03
2022-08-09T04:01:24.984Z,73.04
2022-08-09T04:02:30.313Z,73.01
2022-08-09T04:03:35.407Z,72.76
2022-08-09T04:04:24.801Z,72.65
2022-08-09T04:05:27.655Z,72.96
2022-08-09T04:06:23.813Z,72.42
2022-08-09T04:07:23.774Z,72.42
2022-08-09T04:08:28.919Z,73.01
2022-08-09T04:09:41.606Z,72.79
2022-08-09T04:10:29.461Z,73.29
2022-08-09T04:11:25.006Z,72.21
2022-08-09T04:12:30.566Z,72.43
2022-08-09T04:13:45.004Z,72.57
2022-08-09T04:14:53.185Z,73.30
2022-08-09T04:15:51.949Z,73.15
2022-08-09T04:16:24.683Z,72.96
2022-08-09T04:17:23.678Z,73.36
2022-08-09T04:18:24.907Z,72.45
2022-08-09T04:19:30.281Z,72.92
2022-08-09T04:20:24.642Z,72.64
2022-08-09T04:21:23.632Z,72.83
2022-08-09T04:22:23.650Z,73.51
2022-08-09T04:23:24.982Z,72.77
2022-08-09T04:24:24.618Z,73.04
2022-08-09T04:25:23.588Z,73.74
2022-08-09T04:26:23.653Z,73.60
2022-08-09T04:27:23.568Z,72.90
2022-08-09T04:28:33.526Z,73.10
2022-08-09T04:29:24.540Z,72.55
2022-08-09T04:30:23.574Z,73.96
2022-08-09T04:31:23.534Z,72.18
2022-08-09T04:32:33.679Z,73.64
2022-08-09T04:33:24.507Z,73.02
2022-08-09T04:34:30.722Z,72.42
2022-08-09T04:35:24.520Z,74.42
2022-08-09T04:36:23.520Z,73.65
2022-08-09T04:37:24.475Z,72.43
2022-08-09T04:38:24.471Z,73.93
2022-08-09T04:39:23.501Z,73.89
2022-08-09T04:40:36.077Z,73.53
2022-08-09T04:41:33.097Z,73.43
2022-08-09T04:42:23.434Z,73.19
2022-08-09T04:43:23.417Z,73.23
2022-08-09T04:44:23.404Z,73.84
2022-08-09T04:45:23.631Z,73.42
2022-08-09T04:46:36.564Z,73.22
2022-08-09T04:47:24.376Z,74.18
2022-08-09T04:48:23.900Z,72.82
2022-08-09T04:49:40.251Z,72.12
2022-08-09T04:50:24.352Z,72.57
2022-08-09T04:51:24.330Z,72.88
2022-08-09T04:52:26.945Z,72.46
2022-08-09T04:53:23.313Z,74.04
2022-08-09T04:54:23.306Z,72.89
2022-08-09T04:55:23.314Z,72.81
2022-08-09T04:56:26.261Z,73.14
2022-08-09T04:57:24.487Z,73.19
2022-08-09T04:58:23.264Z,72.33
2022-08-09T04:59:23.251Z,72.21
2022-08-09T05:00:23.247Z,72.66
2022-08-09T05:01:23.230Z,72.35
2022-08-09T05:02:23.222Z,72.78
2022-08-09T05:03:41.176Z,72.78
2022-08-09T05:04:31.080Z,71.36
2022-08-09T05:05:32.073Z,72.15
2022-08-09T05:06:27.847Z,73.01
2022-08-09T05:07:23.172Z,72.36
2022-08-09T05:08:23.155Z,72.23
2022-08-09T05:09:23.149Z,72.17
2022-08-09T05:10:23.151Z,72.55
2022-08-09T05:11:23.130Z,73.29
2022-08-09T05:12:24.128Z,71.22
2022-08-09T05:13:23.109Z,72.41
2022-08-09T05:14:23.097Z,72.56
2022-08-09T05:15:24.673Z,71.77
2022-08-09T05:16:28.438Z,71.59
2022-08-09T05:18:36.729Z,72.73
2022-08-09T05:18:38.208Z,71.98
2022-08-09T05:19:25.944Z,70.64
2022-08-09T05:20:24.059Z,71.45
2022-08-09T05:21:24.918Z,70.76
2022-08-09T05:22:36.272Z,71.46
2022-08-09T05:23:54.815Z,71.35
2022-08-09T05:24:24.180Z,70.26
2022-08-09T05:25:23.001Z,71.39
2022-08-09T05:26:35.780Z,70.55
2022-08-09T05:27:23.967Z,69.55
2022-08-09T05:28:22.949Z,69.50
2022-08-09T05:29:24.492Z,70.24
2022-08-09T05:30:23.950Z,70.15
2022-08-09T05:31:37.008Z,70.28
2022-08-09T05:32:23.929Z,70.24
2022-08-09T05:33:26.382Z,69.93
2022-08-09T05:34:30.127Z,70.49
2022-08-09T05:35:23.891Z,70.75
2022-08-09T05:36:22.861Z,69.44
2022-08-09T05:37:22.866Z,69.12
2022-08-09T05:38:22.861Z,68.74
2022-08-09T05:39:29.038Z,70.34
2022-08-09T05:40:22.839Z,69.84
2022-08-09T05:41:22.838Z,69.27
2022-08-09T05:42:27.973Z,69.30
2022-08-09T05:43:23.794Z,68.55
2022-08-09T05:44:29.061Z,68.48
2022-08-09T05:45:24.859Z,68.44
2022-08-09T05:46:22.764Z,70.31
2022-08-09T05:47:23.150Z,69.20
2022-08-09T05:48:27.853Z,67.62
2022-08-09T05:50:24.042Z,69.78
2022-08-09T05:50:43.938Z,69.40
2022-08-09T05:51:41.600Z,69.29
2022-08-09T05:52:24.868Z,69.20
2022-08-09T05:53:32.530Z,67.39
2022-08-09T05:54:23.755Z,66.51
2022-08-09T05:55:23.907Z,67.46
2022-08-09T05:56:22.981Z,67.19
2022-08-09T05:57:25.143Z,70.24
2022-08-09T05:58:23.650Z,66.42
2022-08-09T05:59:22.651Z,66.62
2022-08-09T06:00:22.627Z,67.14
2022-08-09T06:01:22.614Z,68.60
2022-08-09T06:02:22.669Z,68.15
2022-08-09T06:03:22.634Z,67.84
2022-08-09T06:04:23.408Z,69.50
2022-08-09T06:05:50.680Z,71.33
2022-08-09T06:06:23.563Z,68.94
2022-08-09T06:07:22.548Z,68.37
2022-08-09T06:08:24.848Z,69.63
2022-08-09T06:09:40.548Z,68.80
2022-08-09T06:10:23.552Z,68.85
2022-08-09T06:11:40.661Z,69.46
2022-08-09T06:12:26.345Z,69.16
2022-08-09T06:13:22.492Z,69.62
2022-08-09T06:14:22.492Z,69.85
2022-08-09T06:15:22.503Z,70.18
2022-08-09T06:16:22.461Z,70.64
2022-08-09T06:17:22.463Z,69.53
2022-08-09T06:18:24.816Z,70.62
2022-08-09T06:19:22.430Z,70.07
2022-08-09T06:20:22.444Z,70.17
2022-08-09T06:21:22.414Z,70.51
2022-08-09T06:22:28.595Z,68.02
2022-08-09T06:23:24.406Z,69.33
2022-08-09T06:24:23.372Z,68.46
2022-08-09T06:25:22.385Z,68.52
2022-08-09T06:26:22.723Z,70.80
2022-08-09T06:27:23.340Z,68.87
2022-08-09T06:28:22.335Z,70.08
2022-08-09T06:29:23.325Z,66.93
2022-08-09T06:30:22.339Z,68.03
2022-08-09T06:31:30.660Z,68.02
2022-08-09T06:32:59.898Z,68.51
2022-08-09T06:33:40.786Z,68.43
2022-08-09T06:34:25.976Z,69.06
2022-08-09T06:35:22.271Z,70.31
2022-08-09T06:36:27.165Z,67.83
2022-08-09T06:37:22.247Z,67.82
2022-08-09T06:38:31.873Z,69.72
2022-08-09T06:39:23.246Z,68.56
2022-08-09T06:40:24.484Z,68.28
2022-08-09T06:41:22.206Z,67.18
2022-08-09T06:42:24.985Z,68.88
2022-08-09T06:43:23.177Z,67.91
2022-08-09T06:44:22.172Z,67.96
2022-08-09T06:46:04.880Z,68.47
2022-08-09T06:46:40.501Z,67.42
2022-08-09T06:47:23.738Z,68.00
2022-08-09T06:48:30.528Z,69.17
2022-08-09T06:49:44.687Z,67.69
2022-08-09T06:50:23.134Z,68.49
2022-08-09T06:51:22.104Z,67.20
2022-08-09T06:52:23.530Z,68.11
2022-08-09T06:53:22.102Z,68.24
2022-08-09T06:54:22.076Z,67.43
2022-08-09T06:55:23.146Z,69.89
2022-08-09T06:56:31.037Z,66.47
2022-08-09T06:57:25.807Z,67.08
2022-08-09T06:58:40.703Z,67.25
2022-08-09T07:00:51.173Z,67.61
2022-08-09T07:00:55.798Z,67.98
2022-08-09T07:01:24.281Z,65.93
2022-08-09T07:02:22.050Z,67.89
2022-08-09T07:03:28.468Z,67.32
2022-08-09T07:04:21.971Z,67.33
2022-08-09T07:05:21.977Z,65.76
2022-08-09T07:06:21.952Z,66.11
2022-08-09T07:07:28.519Z,66.24
2022-08-09T07:08:22.938Z,68.11
2022-08-09T07:09:57.106Z,66.12
2022-08-09T07:10:31.308Z,64.96
2022-08-09T07:11:23.446Z,68.04
2022-08-09T07:12:21.884Z,64.82
2022-08-09T07:13:27.660Z,66.25
2022-08-09T07:14:26.366Z,64.96
2022-08-09T07:15:53.887Z,64.56
2022-08-09T07:16:41.263Z,67.06
2022-08-09T07:17:22.840Z,66.74
2022-08-09T07:18:21.827Z,67.45
2022-08-09T07:19:23.561Z,65.22
2022-08-09T07:20:21.822Z,67.58
2022-08-09T07:21:21.797Z,67.91
2022-08-09T07:22:27.665Z,66.89
2022-08-09T07:23:22.888Z,68.06
2022-08-09T07:24:21.760Z,65.20
2022-08-09T07:25:22.770Z,67.60
2022-08-09T07:26:21.749Z,65.88
2022-08-09T07:27:33.635Z,65.34
2022-08-09T07:28:26.410Z,64.52
2022-08-09T07:29:22.718Z,65.91
2022-08-09T07:30:24.505Z,64.94
2022-08-09T07:31:21.696Z,66.12
2022-08-09T07:32:21.691Z,65.28
2022-08-09T07:33:21.672Z,65.38
2022-08-09T07:34:21.685Z,66.87
2022-08-09T07:35:21.659Z,65.62
2022-08-09T07:36:22.080Z,65.48
2022-08-09T07:37:22.032Z,64.75
2022-08-09T07:38:21.626Z,64.34
2022-08-09T07:39:41.040Z,65.60
2022-08-09T07:40:26.756Z,65.95
2022-08-09T07:41:22.604Z,67.58
2022-08-09T07:42:21.581Z,68.49
2022-08-09T07:43:22.580Z,66.86
2022-08-09T07:44:24.201Z,65.60
2022-08-09T07:45:23.669Z,64.08
2022-08-09T07:46:22.568Z,66.11
2022-08-09T07:47:23.148Z,66.04
2022-08-09T07:48:25.461Z,66.05
2022-08-09T07:49:22.514Z,66.88
2022-08-09T07:50:21.601Z,66.37
2022-08-09T07:52:05.173Z,64.22
2022-08-09T07:52:22.508Z,66.46
2022-08-09T07:53:45.100Z,65.19
2022-08-09T07:54:28.241Z,66.65
2022-08-09T07:55:22.451Z,66.14
2022-08-09T07:56:27.175Z,65.30
2022-08-09T07:57:22.434Z,67.17
2022-08-09T07:58:26.329Z,65.03
2022-08-09T07:59:34.030Z,66.53
2022-08-09T08:00:36.130Z,65.40
2022-08-09T08:01:22.447Z,64.51
2022-08-09T08:02:22.445Z,64.68
2022-08-09T08:03:21.364Z,67.17
2022-08-09T08:04:31.184Z,66.39
2022-08-09T08:05:22.374Z,67.23
2022-08-09T08:06:21.456Z,65.36
2022-08-09T08:08:44.414Z,66.13
2022-08-09T08:09:02.524Z,65.37
2022-08-09T08:09:36.472Z,64.38
2022-08-09T08:10:22.321Z,66.28
2022-08-09T08:12:24.993Z,65.11
2022-08-09T08:12:27.738Z,63.45
2022-08-09T08:13:22.260Z,63.99
2022-08-09T08:14:24.032Z,65.95
2022-08-09T08:15:23.141Z,65.93
2022-08-09T08:16:29.691Z,64.41
2022-08-09T08:17:35.344Z,65.18
2022-08-09T08:18:22.225Z,65.40
2022-08-09T08:19:21.203Z,66.12
2022-08-09T08:20:29.283Z,64.90
2022-08-09T08:21:22.176Z,65.15
2022-08-09T08:22:24.249Z,64.33
2022-08-09T08:23:22.166Z,65.98
2022-08-09T08:24:21.165Z,66.73
2022-08-09T08:25:21.175Z,65.44
2022-08-09T08:26:26.487Z,63.92
2022-08-09T08:27:22.127Z,65.37
2022-08-09T08:28:32.459Z,62.99
2022-08-09T08:29:27.759Z,64.54
2022-08-09T08:30:22.123Z,65.96
2022-08-09T08:31:21.086Z,65.81
2022-08-09T08:32:28.665Z,66.15
2022-08-09T08:33:24.302Z,65.98
2022-08-09T08:34:21.062Z,64.79
2022-08-09T08:35:22.293Z,66.03
2022-08-09T08:36:28.359Z,64.93
2022-08-09T08:37:22.042Z,64.67
2022-08-09T08:38:21.052Z,63.48
2022-08-09T08:39:22.011Z,64.48
2022-08-09T08:40:21.023Z,65.54
2022-08-09T08:41:21.000Z,66.04
2022-08-09T08:42:24.268Z,64.83
2022-08-09T08:43:23.213Z,66.34
2022-08-09T08:44:26.971Z,65.82
2022-08-09T08:45:37.327Z,65.22
2022-08-09T08:46:33.288Z,62.52
2022-08-09T08:47:22.936Z,65.09
2022-08-09T08:48:20.929Z,65.28
2022-08-09T08:49:20.930Z,66.30
2022-08-09T08:50:20.913Z,66.71
2022-08-09T08:51:20.900Z,65.86
2022-08-09T08:52:52.997Z,63.74
2022-08-09T08:53:22.889Z,64.10
2022-08-09T08:54:29.663Z,63.00
2022-08-09T08:55:23.482Z,66.32
2022-08-09T08:56:27.221Z,65.64
2022-08-09T08:57:21.836Z,65.05
2022-08-09T08:58:27.076Z,64.36
2022-08-09T08:59:20.817Z,63.46
2022-08-09T09:00:27.878Z,66.10
2022-08-09T09:01:24.891Z,65.58
2022-08-09T09:02:30.664Z,63.24
2022-08-09T09:03:23.043Z,63.55
2022-08-09T09:04:27.250Z,63.56
2022-08-09T09:05:22.730Z,61.76
2022-08-09T09:06:21.742Z,63.63
2022-08-09T09:07:20.741Z,63.50
2022-08-09T09:08:30.419Z,64.34
2022-08-09T09:09:57.968Z,64.86
2022-08-09T09:10:21.691Z,66.87
2022-08-09T09:11:20.712Z,65.00
2022-08-09T09:12:20.688Z,63.49
2022-08-09T09:13:20.656Z,63.65
2022-08-09T09:14:20.657Z,62.27
2022-08-09T09:15:28.681Z,61.81
2022-08-09T09:16:30.515Z,62.59
2022-08-09T09:17:21.621Z,60.86
2022-08-09T09:18:20.622Z,62.32
2022-08-09T09:19:40.886Z,63.12
2022-08-09T09:20:22.608Z,63.37
2022-08-09T09:21:26.414Z,63.54
2022-08-09T09:22:26.681Z,63.74
2022-08-09T09:23:21.572Z,60.96
2022-08-09T09:24:22.148Z,62.49
2022-08-09T09:26:02.186Z,63.53
2022-08-09T09:26:21.554Z,62.85
2022-08-09T09:28:04.161Z,62.71
2022-08-09T09:29:02.276Z,66.08
2022-08-09T09:29:21.502Z,62.51
2022-08-09T09:30:39.979Z,60.94
2022-08-09T09:32:03.910Z,62.47
2022-08-09T09:32:35.255Z,63.63
2022-08-09T09:33:21.464Z,62.93
2022-08-09T09:34:20.461Z,62.71
2022-08-09T09:35:20.473Z,63.33
2022-08-09T09:36:22.005Z,64.15
2022-08-09T09:37:20.423Z,62.88
2022-08-09T09:38:27.862Z,63.28
2022-08-09T09:39:21.468Z,64.01
2022-08-09T09:40:20.447Z,63.19
2022-08-09T09:41:20.395Z,62.22
2022-08-09T09:42:20.382Z,64.09
2022-08-09T09:43:20.373Z,63.71
2022-08-09T09:44:25.250Z,64.98
2022-08-09T09:45:26.877Z,64.14
2022-08-09T09:47:22.340Z,63.61
2022-08-09T09:48:20.328Z,64.77
2022-08-09T09:49:23.523Z,62.94
2022-08-09T09:50:22.830Z,63.00
2022-08-09T09:51:26.076Z,63.57
2022-08-09T09:52:36.028Z,64.87
2022-08-09T09:53:21.289Z,64.69
2022-08-09T09:54:55.182Z,64.04
2022-08-09T09:55:28.065Z,64.29
2022-08-09T09:56:31.436Z,64.34
2022-08-09T09:58:01.185Z,64.80
2022-08-09T09:58:21.229Z,65.91
2022-08-09T09:59:20.216Z,65.79
2022-08-09T10:00:20.225Z,63.80
2022-08-09T10:01:31.292Z,64.34
2022-08-09T10:02:21.184Z,63.37
2022-08-09T10:03:20.191Z,65.93
2022-08-09T10:04:22.739Z,65.46
2022-08-09T10:05:27.172Z,66.26
2022-08-09T10:06:21.147Z,66.12
2022-08-09T10:07:20.142Z,63.70
2022-08-09T10:08:27.270Z,66.17
2022-08-09T10:09:23.332Z,65.93
2022-08-09T10:10:20.110Z,65.25
2022-08-09T10:11:53.955Z,62.45
2022-08-09T10:12:29.479Z,63.94
2022-08-09T10:13:24.629Z,63.18
2022-08-09T10:14:27.599Z,61.35
2022-08-09T10:15:50.728Z,63.28
2022-08-09T10:16:57.052Z,62.47
2022-08-09T10:17:39.539Z,59.96
2022-08-09T10:18:21.027Z,61.89
2022-08-09T10:19:20.025Z,63.70
2022-08-09T10:20:27.111Z,62.58
2022-08-09T10:21:21.049Z,63.59
2022-08-09T10:22:40.926Z,62.92
2022-08-09T10:23:22.018Z,62.47
2022-08-09T10:24:25.667Z,63.11
2022-08-09T10:25:21.084Z,63.94
2022-08-09T10:26:19.975Z,62.53
2022-08-09T10:27:22.981Z,63.19
2022-08-09T10:28:20.931Z,62.58
2022-08-09T10:29:36.122Z,64.12
2022-08-09T10:32:13.639Z,63.36
2022-08-09T10:32:48.362Z,63.65
2022-08-09T10:34:04.559Z,64.87
2022-08-09T10:34:33.885Z,64.65
2022-08-09T10:35:20.873Z,62.05
2022-08-09T10:36:20.507Z,64.45
2022-08-09T10:37:19.837Z,62.78
2022-08-09T10:38:34.421Z,66.17
2022-08-09T10:39:20.859Z,63.90
2022-08-09T10:40:33.752Z,63.11
2022-08-09T10:41:20.957Z,62.66
2022-08-09T10:42:19.795Z,64.24
2022-08-09T10:43:19.777Z,64.92
2022-08-09T10:44:21.724Z,63.61
2022-08-09T10:45:19.765Z,61.82
2022-08-09T10:46:24.828Z,61.94
2022-08-09T10:48:19.156Z,62.44
2022-08-09T10:48:30.172Z,62.34
2022-08-09T10:49:20.726Z,63.23
2022-08-09T10:50:27.043Z,62.12
2022-08-09T10:51:20.723Z,61.95
2022-08-09T10:52:20.775Z,61.46
2022-08-09T10:53:19.692Z,62.12
2022-08-09T10:54:19.680Z,62.61
2022-08-09T10:55:19.665Z,59.37
2022-08-09T10:56:22.939Z,61.11
2022-08-09T10:57:19.639Z,61.80
2022-08-09T10:58:25.574Z,60.29
2022-08-09T10:59:20.624Z,61.25
2022-08-09T11:00:19.621Z,61.10
2022-08-09T11:03:13.976Z,62.02
2022-08-09T11:03:14.173Z,60.63
2022-08-09T11:03:49.471Z,59.58
2022-08-09T11:04:30.564Z,59.83
2022-08-09T11:05:25.397Z,59.54
2022-08-09T11:06:19.582Z,59.41
2022-08-09T11:07:19.554Z,58.75
2022-08-09T11:08:19.539Z,59.74
2022-08-09T11:09:20.534Z,59.17
2022-08-09T11:10:19.525Z,60.96
2022-08-09T11:11:20.564Z,59.83
2022-08-09T11:12:20.061Z,60.21
2022-08-09T11:13:53.709Z,59.59
2022-08-09T11:14:28.193Z,59.82
2022-08-09T11:15:19.479Z,59.96
2022-08-09T11:16:34.839Z,59.77
2022-08-09T11:17:20.465Z,59.90
2022-08-09T11:18:19.455Z,59.72
2022-08-09T11:19:19.441Z,58.35
2022-08-09T11:20:23.089Z,58.96
2022-08-09T11:21:19.433Z,59.77
2022-08-09T11:22:24.301Z,60.08
2022-08-09T11:23:24.024Z,59.29
2022-08-09T11:24:20.404Z,59.16
2022-08-09T11:25:19.368Z,60.97
2022-08-09T11:26:20.974Z,58.39
2022-08-09T11:27:52.793Z,59.29
2022-08-09T11:28:30.461Z,59.61
2022-08-09T11:30:06.381Z,59.45
2022-08-09T11:30:32.550Z,59.32
2022-08-09T11:31:33.849Z,59.64
2022-08-09T11:32:20.312Z,59.54
2022-08-09T11:33:19.293Z,61.99
2022-08-09T11:34:19.291Z,62.35
2022-08-09T11:35:20.342Z,62.52
2022-08-09T11:36:30.290Z,62.06
2022-08-09T11:37:20.251Z,61.20
2022-08-09T11:38:19.250Z,61.72
2022-08-09T11:39:19.336Z,62.92
2022-08-09T11:40:19.233Z,62.97
2022-08-09T11:41:19.226Z,63.09
2022-08-09T11:42:19.211Z,63.21
2022-08-09T11:43:19.213Z,62.77
2022-08-09T11:44:19.196Z,63.65
2022-08-09T11:45:19.188Z,63.34
2022-08-09T11:46:33.163Z,62.66
2022-08-09T11:47:21.177Z,63.26
2022-08-09T11:48:26.201Z,64.09
2022-08-09T11:49:28.058Z,62.33
2022-08-09T11:50:56.241Z,61.53
2022-08-09T11:53:02.349Z,62.59
2022-08-09T11:53:02.473Z,63.27
2022-08-09T11:53:21.410Z,63.61
2022-08-09T11:54:28.693Z,61.87
2022-08-09T11:55:21.748Z,60.25
2022-08-09T11:56:20.146Z,62.32
2022-08-09T11:57:28.246Z,62.40
2022-08-09T11:58:20.054Z,62.02
2022-08-09T11:59:20.045Z,61.56
2022-08-09T12:00:22.857Z,58.81
2022-08-09T12:02:01.112Z,59.00
2022-08-09T12:02:37.150Z,59.83
2022-08-09T12:03:56.334Z,58.62
2022-08-09T12:04:20.760Z,56.26
2022-08-09T12:05:23.042Z,56.88
2022-08-09T12:06:18.992Z,56.66
2022-08-09T12:07:19.966Z,57.44
2022-08-09T12:08:21.600Z,58.44
2022-08-09T12:09:19.318Z,58.92
2022-08-09T12:10:38.511Z,58.48
2022-08-09T12:11:19.948Z,60.70
2022-08-09T12:12:20.204Z,61.98
2022-08-09T12:14:10.542Z,61.50
2022-08-09T12:14:28.706Z,62.54
2022-08-09T12:15:19.907Z,62.90
2022-08-09T12:16:37.721Z,61.67
2022-08-09T12:17:34.237Z,61.98
2022-08-09T12:18:26.048Z,61.15
2022-08-09T12:19:19.849Z,61.08
2022-08-09T12:20:22.341Z,61.03
2022-08-09T12:21:28.650Z,61.60
2022-08-09T12:22:19.819Z,63.12
2022-08-09T12:23:24.559Z,61.29
2022-08-09T12:24:19.813Z,61.75
2022-08-09T12:25:36.405Z,60.97
2022-08-09T12:26:26.237Z,61.66
2022-08-09T12:28:58.634Z,60.47
2022-08-09T12:29:11.259Z,61.11
2022-08-09T12:29:29.940Z,62.78
2022-08-09T12:30:37.025Z,62.57
2022-08-09T12:31:58.224Z,61.64
2022-08-09T12:32:19.723Z,63.60
2022-08-09T12:33:18.721Z,63.09
2022-08-09T12:34:18.702Z,63.15
2022-08-09T12:35:21.794Z,62.08
2022-08-09T12:36:32.001Z,63.41
2022-08-09T12:37:23.553Z,62.76
2022-08-09T12:38:37.385Z,62.85
2022-08-09T12:39:19.704Z,62.67
2022-08-09T12:40:18.885Z,62.68
2022-08-09T12:41:18.628Z,62.58
2022-08-09T12:42:18.648Z,59.83
2022-08-09T12:43:18.618Z,61.04
2022-08-09T12:44:18.620Z,65.16
2022-08-09T12:45:33.641Z,62.30
2022-08-09T12:46:19.603Z,61.58
2022-08-09T12:47:22.695Z,60.74
2022-08-09T12:48:28.059Z,61.22
2022-08-09T12:49:20.857Z,62.48
2022-08-09T12:50:19.697Z,61.70
2022-08-09T12:51:52.463Z,60.36
2022-08-09T12:52:19.566Z,59.28
2022-08-09T12:53:21.102Z,60.64
2022-08-09T12:54:19.507Z,59.29
2022-08-09T12:56:16.042Z,58.66
2022-08-09T12:56:39.292Z,60.32
2022-08-09T12:57:19.500Z,61.52